Time;durP1;ratioP1;P1;durP2;ratioP2;P2;SDS_P1;SDS_P2;PMS_P1;PMS_P2;Temp;Humidity;BMP_temperature;BMP_pressure;BME280_temperature;BME280_humidity;BME280_pressure;Samples;Min_cycle;Max_cycle;Signal;HPM_P1;HPM_P2
2023/11/18 00:02:24;;;;;;;;;;;;;;;-5.29;58.20;100879.47;5094402;28;19973;-69
2023/11/18 00:04:51;;;;;;;;;;;;;;;-5.24;57.90;100874.69;5090460;28;19949;-70
2023/11/18 00:07:17;;;;;;;;;;;;;;;-5.21;58.43;100878.38;5089658;28;19927;-69
2023/11/18 00:09:45;;;;;;;;;;;;;;;-5.17;57.75;100882.88;5075424;28;21029;-69
2023/11/18 00:12:11;;;;;;;;;;;;;;;-5.23;57.89;100879.00;5090213;28;19919;-68
2023/11/18 00:14:37;;;;;;;;;;;;;;;-5.24;57.89;100877.25;5091233;28;19926;-68
2023/11/18 00:17:04;;;;;;;;;;;;;;;-5.23;58.31;100879.91;5093561;28;19920;-69
2023/11/18 00:19:30;;;;;;;;;;;;;;;-5.18;58.12;100877.69;5121477;27;20397;-68
2023/11/18 00:21:56;;;;;;;;;;;;;;;-5.14;58.22;100885.63;5091031;28;19927;-69
2023/11/18 00:24:21;;;;;;;;;;;;;;;-5.10;58.68;100881.66;5106812;27;19964;-69
2023/11/18 00:26:47;;;;;;;;;;;;;;;-5.06;58.49;100882.75;5091194;28;20019;-69
2023/11/18 00:29:12;;;;;;;;;;;;;;;-5.09;58.45;100883.44;5092624;28;19930;-67
2023/11/18 00:31:38;;;;;;;;;;;;;;;-5.18;58.38;100893.78;5093341;28;19926;-71
2023/11/18 00:34:04;;;;;;;;;;;;;;;-5.17;58.73;100897.22;5092343;28;19923;-67
2023/11/18 00:36:29;;;;;;;;;;;;;;;-5.13;58.73;100896.69;5089548;28;20271;-68
2023/11/18 00:38:55;;;;;;;;;;;;;;;-5.15;58.20;100898.22;5075910;28;19920;-68
2023/11/18 00:41:21;;;;;;;;;;;;;;;-5.11;58.47;100896.78;5106342;27;19924;-69
2023/11/18 00:43:47;;;;;;;;;;;;;;;-5.08;58.75;100897.91;5096686;28;19924;-68
2023/11/18 00:46:13;;;;;;;;;;;;;;;-5.09;58.27;100898.66;5073801;28;19928;-70
2023/11/18 00:48:39;;;;;;;;;;;;;;;-5.16;58.76;100899.84;5092474;28;20322;-67
2023/11/18 00:51:07;;;;;;;;;;;;;;;-5.15;58.91;100893.13;5076257;28;19968;-68
2023/11/18 00:53:33;;;;;;;;;;;;;;;-5.12;59.01;100905.16;5059186;28;20434;-67
2023/11/18 00:55:59;;;;;;;;;;;;;;;-5.14;58.10;100900.84;5077676;28;19924;-67
2023/11/18 00:58:25;;;;;;;;;;;;;;;-5.18;58.17;100906.47;5095027;28;19926;-68
2023/11/18 01:00:50;;;;;;;;;;;;;;;-5.24;58.67;100900.09;5095637;28;19924;-67
2023/11/18 01:03:16;;;;;;;;;;;;;;;-5.24;59.10;100905.16;5097605;28;20004;-68
2023/11/18 01:05:42;;;;;;;;;;;;;;;-5.19;59.03;100898.75;5093641;28;20436;-68
2023/11/18 01:08:08;;;;;;;;;;;;;;;-5.14;59.26;100905.94;5078947;28;19924;-67
2023/11/18 01:10:34;;;;;;;;;;;;;;;-5.16;58.49;100907.47;5097104;28;20015;-68
2023/11/18 01:13:00;;;;;;;;;;;;;;;-5.19;58.23;100908.91;5076811;28;19992;-67
2023/11/18 01:15:25;;;;;;;;;;;;;;;-5.20;58.67;100912.22;5094996;28;19931;-67
2023/11/18 01:17:51;;;;;;;;;;;;;;;-5.17;58.49;100907.38;5096199;28;19931;-68
2023/11/18 01:20:21;;;;;;;;;;;;;;;-5.15;59.17;100908.38;5097648;28;20426;-67
2023/11/18 01:22:48;;;;;;;;;;;;;;;-5.14;58.94;100910.13;5094861;28;19924;-68
2023/11/18 01:25:17;;;;;;;;;;;;;;;-5.10;59.33;100911.22;5125068;27;19963;-67
2023/11/18 01:27:46;;;;;;;;;;;;;;;-5.12;59.03;100911.13;5095702;28;19920;-66
2023/11/18 01:30:12;;;;;;;;;;;;;;;-5.09;59.54;100916.44;5084357;28;19966;-67
2023/11/18 01:32:39;;;;;;;;;;;;;;;-5.06;59.36;100911.56;5094438;28;20382;-67
2023/11/18 01:35:05;;;;;;;;;;;;;;;-5.09;58.78;100920.63;5077599;28;19943;-67
2023/11/18 01:37:31;;;;;;;;;;;;;;;-5.10;58.86;100914.66;5093961;28;20286;-65
2023/11/18 01:39:57;;;;;;;;;;;;;;;-5.11;59.10;100919.63;5096005;28;19920;-67
2023/11/18 01:42:23;;;;;;;;;;;;;;;-5.11;59.06;100923.06;5078997;28;19927;-66
2023/11/18 01:44:48;;;;;;;;;;;;;;;-5.08;59.13;100923.28;5077569;28;19924;-66
2023/11/18 01:47:14;;;;;;;;;;;;;;;-5.11;59.20;100924.69;5096439;28;20378;-66
2023/11/18 01:49:41;;;;;;;;;;;;;;;-5.18;59.20;100919.16;5078922;28;19924;-67
2023/11/18 01:52:09;;;;;;;;;;;;;;;-5.19;59.40;100919.97;5125752;27;20352;-66
2023/11/18 01:54:39;;;;;;;;;;;;;;;-5.17;59.52;100915.84;5095626;28;19924;-67
2023/11/18 01:57:09;;;;;;;;;;;;;;;-5.20;59.41;100920.75;5078563;28;20084;-66
2023/11/18 01:59:35;;;;;;;;;;;;;;;-5.24;59.22;100921.28;5075004;28;20384;-66
2023/11/18 02:02:01;;;;;;;;;;;;;;;-5.27;59.41;100921.06;5130927;27;19956;-67
2023/11/18 02:04:27;;;;;;;;;;;;;;;-5.31;58.98;100914.88;5076567;28;20030;-66
2023/11/18 02:06:53;;;;;;;;;;;;;;;-5.34;59.74;100927.34;5076647;28;20014;-66
2023/11/18 02:09:30;;;;;;;;;;;;;;;-5.36;59.53;100923.81;5059180;28;20312;-67
2023/11/18 02:11:59;;;;;;;;;;;;;;;-5.34;59.10;100921.38;5077153;28;20018;-66
2023/11/18 02:14:26;;;;;;;;;;;;;;;-5.36;59.29;100926.34;5077984;28;19923;-67
2023/11/18 02:16:53;;;;;;;;;;;;;;;-5.34;59.52;100926.44;5078077;28;19919;-66
2023/11/18 02:19:20;;;;;;;;;;;;;;;-5.60;59.85;100882.28;5091480;28;19973;-67
2023/11/18 02:21:46;;;;;;;;;;;;;;;-5.37;59.66;100927.13;5072537;28;20362;-68
2023/11/18 02:24:24;;;;;;;;;;;;;;;-5.51;59.61;100903.25;5123910;27;19931;-67
2023/11/18 02:26:50;;;;;;;;;;;;;;;-5.40;60.11;100926.88;5077294;28;19923;-67
2023/11/18 02:29:16;;;;;;;;;;;;;;;-5.37;59.94;100926.22;5058450;28;20298;-68
2023/11/18 02:31:44;;;;;;;;;;;;;;;-5.36;60.06;100922.91;5060978;28;19935;-69
2023/11/18 02:34:16;;;;;;;;;;;;;;;-5.37;59.94;100938.91;5094505;28;19927;-68
2023/11/18 02:36:45;;;;;;;;;;;;;;;-5.37;59.80;100936.38;5060219;28;19924;-68
2023/11/18 02:39:15;;;;;;;;;;;;;;;-5.38;59.68;100932.06;5110780;27;19924;-68
2023/11/18 02:41:46;;;;;;;;;;;;;;;-5.42;59.93;100937.72;5079616;28;20015;-67
2023/11/18 02:44:17;;;;;;;;;;;;;;;-5.46;59.38;100936.56;5098386;28;19970;-68
2023/11/18 02:46:44;;;;;;;;;;;;;;;-5.50;59.83;100935.47;5094729;28;20159;-68
2023/11/18 02:49:10;;;;;;;;;;;;;;;-5.48;59.89;100933.94;5076157;28;20633;-70
2023/11/18 02:51:39;;;;;;;;;;;;;;;-5.49;59.50;100927.09;5074912;28;19926;-70
2023/11/18 02:54:10;;;;;;;;;;;;;;;-5.54;59.37;100940.22;5082781;28;19919;-70
2023/11/18 02:56:37;;;;;;;;;;;;;;;-5.51;60.29;100937.88;5099007;28;20333;-70
2023/11/18 02:59:05;;;;;;;;;;;;;;;-5.53;60.27;100932.72;5087274;28;19971;-70
2023/11/18 03:01:34;;;;;;;;;;;;;;;-5.51;60.03;100935.34;5070236;28;20043;-71
2023/11/18 03:04:00;;;;;;;;;;;;;;;-5.53;60.17;100937.78;5110072;27;19975;-71
2023/11/18 03:06:26;;;;;;;;;;;;;;;-5.50;59.90;100935.47;5033142;28;19925;-70
2023/11/18 03:08:53;;;;;;;;;;;;;;;-5.65;59.80;100937.75;5019481;28;19978;-68
2023/11/18 03:11:19;;;;;;;;;;;;;;;-5.65;60.33;100936.88;5036201;28;19921;-70
2023/11/18 03:13:48;;;;;;;;;;;;;;;-5.62;60.23;100942.16;5053391;28;20330;-70
2023/11/18 03:16:14;;;;;;;;;;;;;;;-5.63;60.13;100938.75;5050822;28;19960;-70
2023/11/18 03:18:40;;;;;;;;;;;;;;;-5.63;59.83;100938.75;5053679;28;20036;-69
2023/11/18 03:21:14;;;;;;;;;;;;;;;-5.66;60.52;100940.19;5036894;28;19967;-68
2023/11/18 03:23:41;;;;;;;;;;;;;;;-5.67;60.66;100946.91;5021803;28;20409;-69
2023/11/18 03:26:13;;;;;;;;;;;;;;;-5.68;60.55;100942.59;5048157;28;20357;-69
2023/11/18 03:28:39;;;;;;;;;;;;;;;-5.66;60.49;100938.53;5049685;28;19924;-69
2023/11/18 03:31:05;;;;;;;;;;;;;;;-5.68;60.32;100949.34;5050531;28;19921;-69
2023/11/18 03:33:31;;;;;;;;;;;;;;;-5.68;60.19;100952.75;5019374;28;19922;-69
2023/11/18 03:35:58;;;;;;;;;;;;;;;-5.65;60.64;100952.09;5011777;28;19928;-68
2023/11/18 03:38:24;;;;;;;;;;;;;;;-5.63;60.49;100953.09;5020328;28;19927;-68
2023/11/18 03:40:52;;;;;;;;;;;;;;;-5.65;60.51;100957.19;5068285;28;19925;-67
2023/11/18 03:43:17;;;;;;;;;;;;;;;-5.73;60.09;100953.16;5053757;28;20482;-68
2023/11/18 03:45:43;;;;;;;;;;;;;;;-5.80;60.29;100954.38;5051326;28;19974;-69
2023/11/18 03:48:09;;;;;;;;;;;;;;;-5.77;60.63;100955.47;5052853;28;19925;-69
2023/11/18 03:50:34;;;;;;;;;;;;;;;-5.76;60.53;100959.78;5052638;28;19944;-69
2023/11/18 03:53:01;;;;;;;;;;;;;;;-5.76;60.96;100957.25;5019376;28;19940;-69
2023/11/18 03:55:29;;;;;;;;;;;;;;;-5.74;61.05;100949.78;5035668;28;19935;-69
2023/11/18 03:57:55;;;;;;;;;;;;;;;-5.74;61.15;100954.84;5054826;28;19928;-68
2023/11/18 04:00:21;;;;;;;;;;;;;;;-5.80;60.95;100957.78;5049278;28;19931;-68
2023/11/18 04:02:47;;;;;;;;;;;;;;;-5.84;60.80;100962.50;5051748;28;19924;-70
2023/11/18 04:05:13;;;;;;;;;;;;;;;-5.97;59.50;100951.44;5071039;28;19928;-72
2023/11/18 04:07:42;;;;;;;;;;;;;;;-6.00;61.03;100955.41;5075214;28;19927;-72
2023/11/18 04:10:10;;;;;;;;;;;;;;;-5.94;61.14;100955.84;5109312;27;19919;-71
2023/11/18 04:12:37;;;;;;;;;;;;;;;-5.94;60.77;100959.25;5060112;28;20062;-70
2023/11/18 04:15:04;;;;;;;;;;;;;;;-5.97;60.95;100953.09;5092442;28;19920;-71
2023/11/18 04:17:30;;;;;;;;;;;;;;;-5.93;61.34;100955.97;5091684;28;19924;-69
2023/11/18 04:19:56;;;;;;;;;;;;;;;-5.92;60.69;100956.84;5109554;27;19924;-72
2023/11/18 04:22:23;;;;;;;;;;;;;;;-5.93;61.38;100960.16;5105130;27;19969;-70
2023/11/18 04:24:48;;;;;;;;;;;;;;;-5.94;61.32;100963.47;5075698;28;19924;-72
2023/11/18 04:27:17;;;;;;;;;;;;;;;-5.94;61.50;100958.41;5096109;28;19927;-72
2023/11/18 04:29:43;;;;;;;;;;;;;;;-5.97;61.06;100969.19;5092097;28;19924;-72
2023/11/18 04:32:08;;;;;;;;;;;;;;;-5.96;61.18;100970.97;5075886;28;20450;-71
2023/11/18 04:34:37;;;;;;;;;;;;;;;-5.95;60.74;100966.75;5093687;28;20297;-71
2023/11/18 04:37:06;;;;;;;;;;;;;;;-5.93;61.45;100973.72;5056899;28;20342;-71
2023/11/18 04:39:32;;;;;;;;;;;;;;;-5.99;61.18;100972.38;5073488;28;20580;-71
2023/11/18 04:41:58;;;;;;;;;;;;;;;-5.99;61.16;100973.25;5093220;28;19964;-72
2023/11/18 04:44:24;;;;;;;;;;;;;;;-5.96;61.22;100972.59;5089549;28;19923;-70
2023/11/18 04:46:50;;;;;;;;;;;;;;;-5.96;60.75;100975.13;5091778;28;19935;-71
2023/11/18 04:49:17;;;;;;;;;;;;;;;-6.02;61.53;100974.69;5090200;28;19927;-70
2023/11/18 04:51:43;;;;;;;;;;;;;;;-6.06;61.60;100974.44;5090474;28;19920;-68
2023/11/18 04:54:10;;;;;;;;;;;;;;;-6.10;61.47;100975.00;5091478;28;20031;-69
2023/11/18 04:56:36;;;;;;;;;;;;;;;-6.11;60.48;100977.41;5079725;28;19927;-68
2023/11/18 04:59:05;;;;;;;;;;;;;;;-6.33;60.19;100975.75;5090008;28;19920;-68
2023/11/18 05:01:31;;;;;;;;;;;;;;;-6.48;60.93;100980.50;5079552;28;19931;-69
2023/11/18 05:03:57;;;;;;;;;;;;;;;-6.33;62.04;100978.28;5089890;28;20014;-68
2023/11/18 05:06:23;;;;;;;;;;;;;;;-6.19;61.83;100981.88;5087605;28;20050;-67
2023/11/18 05:08:49;;;;;;;;;;;;;;;-6.13;61.70;100979.84;5071823;28;20021;-70
2023/11/18 05:11:15;;;;;;;;;;;;;;;-6.02;62.22;100984.84;5074453;28;19927;-66
2023/11/18 05:13:41;;;;;;;;;;;;;;;-5.98;61.29;100981.72;5107052;28;19946;-67
2023/11/18 05:16:07;;;;;;;;;;;;;;;-5.90;61.55;100973.94;5052680;28;19927;-66
2023/11/18 05:18:36;;;;;;;;;;;;;;;-5.41;61.74;100973.34;5089281;28;19928;-65
2023/11/18 05:21:05;;;;;;;;;;;;;;;-4.85;61.37;100975.72;5087794;28;19932;-66
2023/11/18 05:23:30;;;;;;;;;;;;;;;-4.28;61.28;100965.25;5107395;28;20531;-69
2023/11/18 05:25:56;;;;;;;;;;;;;;;-3.71;61.34;100969.16;5088028;28;19920;-68
2023/11/18 05:28:22;;;;;;;;;;;;;;;-2.93;61.27;100969.09;5109335;28;20022;-71
2023/11/18 05:30:48;;;;;;;;;;;;;;;-2.17;60.96;100954.31;5088188;28;19919;-69
2023/11/18 05:33:17;;;;;;;;;;;;;;;-1.41;61.05;100960.44;5091764;28;19931;-73
2023/11/18 05:35:48;;;;;;;;;;;;;;;-0.69;59.36;100950.00;5089727;28;19919;-67
2023/11/18 05:38:19;;;;;;;;;;;;;;;-0.01;59.55;100956.19;5091801;28;20351;-67
2023/11/18 05:41:00;;;;;;;;;;;;;;;0.78;58.95;100954.16;5091494;28;20289;-67
2023/11/18 05:43:36;;;;;;;;;;;;;;;1.73;57.77;100950.09;5075449;28;19945;-66
2023/11/18 05:46:22;;;;;;;;;;;;;;;2.53;56.68;100947.56;5082267;28;19926;-67
2023/11/18 05:48:52;;;;;;;;;;;;;;;3.38;56.75;100941.53;5076473;28;21481;-69
2023/11/18 05:51:22;;;;;;;;;;;;;;;3.85;55.94;100942.44;5092905;28;19920;-70
2023/11/18 05:53:48;;;;;;;;;;;;;;;4.62;55.09;100941.69;5094194;28;19928;-67
2023/11/18 05:56:16;;;;;;;;;;;;;;;5.38;55.05;100938.94;5092854;28;19931;-69
2023/11/18 05:58:45;;;;;;;;;;;;;;;6.07;54.12;100934.03;5094700;28;20048;-71
2023/11/18 06:01:12;;;;;;;;;;;;;;;6.93;52.79;100930.22;5094763;28;19954;-68
2023/11/18 06:03:38;;;;;;;;;;;;;;;7.87;51.97;100930.56;5077338;28;19976;-70
2023/11/18 06:06:16;;;;;;;;;;;;;;;8.72;50.42;100932.13;5076625;28;19928;-68
2023/11/18 06:08:42;;;;;;;;;;;;;;;9.15;47.56;100928.50;5096556;28;19924;-71
2023/11/18 06:11:15;;;;;;;;;;;;;;;9.42;48.86;100927.13;5124366;27;20306;-68
2023/11/18 06:13:46;;;;;;;;;;;;;;;10.17;47.86;100929.78;5096004;28;19931;-69
2023/11/18 06:16:16;;;;;;;;;;;;;;;10.98;46.95;100922.72;5092827;28;20334;-67
2023/11/18 06:18:44;;;;;;;;;;;;;;;11.85;46.19;100917.97;5099463;28;19931;-69
2023/11/18 06:21:14;;;;;;;;;;;;;;;12.62;44.99;100899.91;5095409;28;19974;-68
2023/11/18 06:23:40;;;;;;;;;;;;;;;13.27;44.07;100914.63;5076627;28;19943;-68
2023/11/18 06:26:06;;;;;;;;;;;;;;;13.43;42.66;100920.72;5077635;28;20309;-70
2023/11/18 06:28:33;;;;;;;;;;;;;;;13.70;43.28;100921.53;5093140;28;19949;-67
2023/11/18 06:30:59;;;;;;;;;;;;;;;14.40;42.34;100921.13;5077504;28;19971;-69
2023/11/18 06:33:27;;;;;;;;;;;;;;;15.21;40.87;100910.88;5095792;28;20283;-66
2023/11/18 06:35:56;;;;;;;;;;;;;;;15.95;40.65;100907.41;5093474;28;19984;-67
2023/11/18 06:38:22;;;;;;;;;;;;;;;16.75;39.27;100899.19;5099334;28;19924;-65
2023/11/18 06:40:52;;;;;;;;;;;;;;;17.37;38.81;100900.72;5123403;27;20010;-66
2023/11/18 06:43:18;;;;;;;;;;;;;;;17.79;38.21;100905.16;5077869;28;19946;-65
2023/11/18 06:45:44;;;;;;;;;;;;;;;17.58;37.55;100909.97;5092641;28;19978;-66
2023/11/18 06:48:10;;;;;;;;;;;;;;;18.12;37.13;100909.72;5085253;28;19924;-69
2023/11/18 06:50:37;;;;;;;;;;;;;;;18.20;36.43;100908.66;5093795;28;19920;-69
2023/11/18 06:53:08;;;;;;;;;;;;;;;18.35;36.11;100907.44;5106391;27;20008;-68
2023/11/18 06:55:35;;;;;;;;;;;;;;;18.66;34.39;100905.81;5105267;27;20318;-70
2023/11/18 06:58:00;;;;;;;;;;;;;;;18.60;34.78;100806.69;5106573;27;19930;-68
2023/11/18 07:00:28;;;;;;;;;;;;;;;19.59;34.76;100900.72;5106167;27;19920;-67
2023/11/18 07:02:54;;;;;;;;;;;;;;;19.39;32.77;100903.94;5078198;28;20371;-68
2023/11/18 07:05:23;;;;;;;;;;;;;;;18.76;33.42;100912.56;5076264;28;20429;-67
2023/11/18 07:07:50;;;;;;;;;;;;;;;18.69;33.60;100908.38;5077671;28;19925;-68
2023/11/18 07:10:20;;;;;;;;;;;;;;;19.69;32.94;100911.88;5081488;28;20476;-68
2023/11/18 07:12:47;;;;;;;;;;;;;;;19.24;29.36;100903.47;5074819;28;19931;-66
2023/11/18 07:15:14;;;;;;;;;;;;;;;19.19;31.02;100908.00;5073528;28;19927;-68
2023/11/18 07:17:43;;;;;;;;;;;;;;;20.11;29.97;100905.38;5076797;28;20227;-68
2023/11/18 07:20:13;;;;;;;;;;;;;;;21.01;30.30;100895.41;5094203;28;20422;-69
2023/11/18 07:22:39;;;;;;;;;;;;;;;21.32;29.35;100904.03;5107007;27;19924;-69
2023/11/18 07:25:06;;;;;;;;;;;;;;;21.89;29.53;100901.91;5097543;28;19919;-70
2023/11/18 07:27:35;;;;;;;;;;;;;;;22.17;28.47;100895.53;5079658;28;20256;-67
2023/11/18 07:30:02;;;;;;;;;;;;;;;22.74;28.07;100897.66;5058406;28;19979;-68
2023/11/18 07:32:33;;;;;;;;;;;;;;;22.94;27.75;100902.13;5065974;28;19923;-68
2023/11/18 07:34:59;;;;;;;;;;;;;;;23.35;27.24;100901.22;5078311;28;20309;-68
2023/11/18 07:37:26;;;;;;;;;;;;;;;23.66;27.02;100898.97;5093512;27;19949;-68
2023/11/18 07:39:55;;;;;;;;;;;;;;;24.04;26.84;100899.00;5076237;28;19942;-71
2023/11/18 07:42:21;;;;;;;;;;;;;;;24.38;26.19;100897.34;5091624;28;19924;-70
2023/11/18 07:44:47;;;;;;;;;;;;;;;24.72;25.79;100895.66;5106811;27;19931;-69
2023/11/18 07:47:16;;;;;;;;;;;;;;;24.58;25.61;100898.13;5079407;28;20249;-68
2023/11/18 07:49:41;;;;;;;;;;;;;;;24.68;25.27;100904.72;5092182;28;19924;-69
2023/11/18 07:52:08;;;;;;;;;;;;;;;25.05;25.22;100894.88;5095202;28;20290;-73
2023/11/18 07:54:37;;;;;;;;;;;;;;;25.45;24.93;100901.69;5077986;28;20452;-67
2023/11/18 07:57:05;;;;;;;;;;;;;;;25.96;24.80;100901.56;5076917;28;19924;-71
2023/11/18 07:59:32;;;;;;;;;;;;;;;26.34;23.97;100901.22;5078744;28;19924;-68
2023/11/18 08:01:58;;;;;;;;;;;;;;;26.60;23.67;100896.16;5095240;28;19927;-74
2023/11/18 08:04:25;;;;;;;;;;;;;;;26.70;23.16;100899.16;5092793;28;21659;-70
2023/11/18 08:06:51;;;;;;;;;;;;;;;26.83;23.07;100894.84;5090477;28;19931;-69
2023/11/18 08:09:22;;;;;;;;;;;;;;;25.53;22.26;100899.50;5073687;28;20408;-66
2023/11/18 08:11:49;;;;;;;;;;;;;;;25.48;22.74;100902.41;5062180;28;19924;-68
2023/11/18 08:14:14;;;;;;;;;;;;;;;25.54;23.10;100907.38;5064193;28;19920;-68
2023/11/18 08:16:40;;;;;;;;;;;;;;;25.78;22.34;100901.66;5090198;28;19924;-67
2023/11/18 08:19:09;;;;;;;;;;;;;;;25.89;22.02;100897.53;5060844;28;20392;-68
2023/11/18 08:21:37;;;;;;;;;;;;;;;26.29;21.95;100906.81;5093111;28;20377;-68
2023/11/18 08:24:05;;;;;;;;;;;;;;;26.95;21.51;100903.91;5099474;27;20990;-68
2023/11/18 08:26:31;;;;;;;;;;;;;;;27.34;21.38;100897.06;5093850;28;19924;-67
2023/11/18 08:28:57;;;;;;;;;;;;;;;27.47;21.27;100891.84;5083631;28;19973;-71
2023/11/18 08:31:23;;;;;;;;;;;;;;;27.68;20.66;100901.28;5092293;28;19935;-68
2023/11/18 08:33:49;;;;;;;;;;;;;;;27.95;20.63;100896.81;5091735;28;19920;-68
2023/11/18 08:36:14;;;;;;;;;;;;;;;28.03;20.39;100898.97;5049876;28;19963;-68
2023/11/18 08:38:44;;;;;;;;;;;;;;;28.64;19.94;100890.53;5093991;28;20297;-68
2023/11/18 08:41:09;;;;;;;;;;;;;;;28.90;19.75;100889.75;5067373;28;20444;-67
2023/11/18 08:43:35;;;;;;;;;;;;;;;28.93;19.89;100886.84;5079955;28;20019;-67
2023/11/18 08:46:01;;;;;;;;;;;;;;;28.77;19.67;100868.31;5092453;28;20452;-67
2023/11/18 08:48:28;;;;;;;;;;;;;;;28.95;19.45;100884.94;5092276;28;19920;-66
2023/11/18 08:50:54;;;;;;;;;;;;;;;28.80;18.42;100889.53;5091829;28;19924;-68
2023/11/18 08:53:25;;;;;;;;;;;;;;;27.59;19.48;100898.22;5091289;28;19939;-68
2023/11/18 08:55:53;;;;;;;;;;;;;;;27.54;19.50;100894.13;5092349;28;19931;-67
2023/11/18 08:58:19;;;;;;;;;;;;;;;27.71;19.99;100890.38;5092227;28;19947;-67
2023/11/18 09:00:48;;;;;;;;;;;;;;;28.03;19.22;100895.47;5090883;28;20008;-67
2023/11/18 09:03:17;;;;;;;;;;;;;;;28.34;19.26;100888.13;5075681;28;19931;-67
2023/11/18 09:05:56;;;;;;;;;;;;;;;28.40;18.93;100893.03;5093762;28;19924;-67
2023/11/18 09:08:42;;;;;;;;;;;;;;;28.50;18.69;100891.47;5093280;28;19932;-69
2023/11/18 09:11:10;;;;;;;;;;;;;;;28.14;18.86;100895.63;5074536;28;19924;-68
2023/11/18 09:13:36;;;;;;;;;;;;;;;28.17;18.54;100897.25;5093041;28;19924;-68
2023/11/18 09:16:09;;;;;;;;;;;;;;;28.07;18.93;100887.13;5096608;28;19919;-68
2023/11/18 09:18:35;;;;;;;;;;;;;;;28.14;18.58;100892.97;5084888;28;20442;-67
2023/11/18 09:21:05;;;;;;;;;;;;;;;28.14;18.21;100894.78;5077045;28;19920;-69
2023/11/18 09:23:31;;;;;;;;;;;;;;;27.74;18.19;100884.81;5094863;28;19930;-68
2023/11/18 09:25:58;;;;;;;;;;;;;;;27.10;18.68;100885.22;5095915;28;20346;-69
2023/11/18 09:28:24;;;;;;;;;;;;;;;26.62;18.41;100886.25;5098647;28;19962;-70
2023/11/18 09:30:53;;;;;;;;;;;;;;;26.66;19.28;100890.47;5097651;28;19963;-69
2023/11/18 09:33:25;;;;;;;;;;;;;;;26.63;18.80;100893.31;5102726;28;19924;-69
2023/11/18 09:35:55;;;;;;;;;;;;;;;26.25;18.87;100889.28;5098397;28;20001;-66
2023/11/18 09:38:21;;;;;;;;;;;;;;;26.15;18.99;100882.75;5082734;28;19950;-67
2023/11/18 09:40:49;;;;;;;;;;;;;;;26.41;18.23;100889.22;5096696;28;20338;-66
2023/11/18 09:43:16;;;;;;;;;;;;;;;26.48;18.52;100886.22;5072284;28;19973;-63
2023/11/18 09:45:45;;;;;;;;;;;;;;;26.64;18.53;100888.84;5081015;28;19945;-66
2023/11/18 09:48:17;;;;;;;;;;;;;;;25.97;18.39;100888.16;5099758;28;20457;-66
2023/11/18 09:50:47;;;;;;;;;;;;;;;25.70;18.28;100883.44;5094491;28;20084;-67
2023/11/18 09:53:14;;;;;;;;;;;;;;;22.80;19.16;100893.88;5113186;27;19927;-71
2023/11/18 09:55:49;;;;;;;;;;;;;;;19.97;19.97;100908.47;5072193;28;19927;-72
2023/11/18 09:58:18;;;;;;;;;;;;;;;17.30;21.37;100909.66;5098368;28;20391;-66
2023/11/18 10:00:50;;;;;;;;;;;;;;;15.71;22.26;100915.56;5096811;28;19920;-67
2023/11/18 10:03:16;;;;;;;;;;;;;;;14.31;23.33;100922.06;5098361;28;19983;-66
2023/11/18 10:05:42;;;;;;;;;;;;;;;13.19;23.86;100919.03;5093571;28;20031;-69
2023/11/18 10:08:08;;;;;;;;;;;;;;;11.99;23.92;100933.72;5095760;28;19924;-68
2023/11/18 10:10:36;;;;;;;;;;;;;;;10.93;24.91;100935.72;5095225;28;19924;-69
2023/11/18 10:13:08;;;;;;;;;;;;;;;10.27;25.07;100937.66;5079240;28;19928;-70
2023/11/18 10:15:34;;;;;;;;;;;;;;;9.56;25.07;100941.19;5097126;28;19924;-68
2023/11/18 10:18:08;;;;;;;;;;;;;;;8.48;25.44;100945.56;5092786;28;19924;-68
2023/11/18 10:20:41;;;;;;;;;;;;;;;7.49;26.81;100946.16;5095575;28;19920;-67
2023/11/18 10:23:10;;;;;;;;;;;;;;;7.08;27.01;100947.81;5071979;28;19962;-69
2023/11/18 10:26:07;;;;;;;;;;;;;;;6.69;26.85;100946.00;5094144;28;19991;-69
2023/11/18 10:28:34;;;;;;;;;;;;;;;6.11;27.16;100948.81;5071535;28;19919;-70
2023/11/18 10:31:04;;;;;;;;;;;;;;;5.71;28.09;100943.34;5107016;27;20301;-67
2023/11/18 10:33:35;;;;;;;;;;;;;;;5.25;27.53;100949.69;5055247;28;20378;-69
2023/11/18 10:36:04;;;;;;;;;;;;;;;4.74;28.43;100954.13;5096562;28;19935;-67
2023/11/18 10:38:55;;;;;;;;;;;;;;;4.30;28.26;100954.31;5092225;28;21445;-69
2023/11/18 10:41:21;;;;;;;;;;;;;;;3.90;28.92;100948.63;5083733;28;19946;-66
2023/11/18 10:43:49;;;;;;;;;;;;;;;3.67;28.91;100954.59;5092837;28;19919;-68
2023/11/18 10:46:16;;;;;;;;;;;;;;;3.30;29.38;100949.81;5083645;28;20125;-66
2023/11/18 10:48:43;;;;;;;;;;;;;;;2.80;30.03;100953.78;5076831;28;19920;-68
2023/11/18 10:51:12;;;;;;;;;;;;;;;2.49;29.79;100953.38;5095619;28;19946;-67
2023/11/18 10:53:38;;;;;;;;;;;;;;;2.18;30.36;100956.31;5092561;28;19977;-67
2023/11/18 10:56:16;;;;;;;;;;;;;;;1.88;30.76;100957.59;5094988;28;19932;-67
2023/11/18 10:58:42;;;;;;;;;;;;;;;1.71;31.07;100961.09;5110761;27;19967;-67
2023/11/18 11:01:11;;;;;;;;;;;;;;;1.62;31.31;100953.88;5092047;28;19958;-67
2023/11/18 11:03:55;;;;;;;;;;;;;;;1.52;31.44;100959.38;5095035;28;19926;-67
2023/11/18 11:06:23;;;;;;;;;;;;;;;1.13;31.51;100967.81;5122274;27;19997;-68
2023/11/18 11:08:49;;;;;;;;;;;;;;;0.90;32.08;100965.91;5085961;28;19924;-67
2023/11/18 11:11:16;;;;;;;;;;;;;;;0.80;32.09;100967.94;5096418;28;19920;-67
2023/11/18 11:13:44;;;;;;;;;;;;;;;0.73;32.84;100962.50;5076023;28;19969;-66
2023/11/18 11:16:12;;;;;;;;;;;;;;;0.58;32.08;100960.03;5094878;28;20610;-67
2023/11/18 11:18:41;;;;;;;;;;;;;;;0.34;33.01;100974.16;5095702;28;19919;-66
2023/11/18 11:21:15;;;;;;;;;;;;;;;0.28;33.01;100965.38;5092009;28;19927;-66
2023/11/18 11:23:54;;;;;;;;;;;;;;;0.24;32.79;100965.13;5095351;28;19923;-67
2023/11/18 11:26:27;;;;;;;;;;;;;;;0.04;32.72;100967.53;5092201;28;19927;-66
2023/11/18 11:29:12;;;;;;;;;;;;;;;-0.31;33.47;100975.09;5094265;28;19920;-66
2023/11/18 11:31:41;;;;;;;;;;;;;;;-0.53;33.93;100967.94;5094456;28;19926;-67
2023/11/18 11:34:20;;;;;;;;;;;;;;;-0.53;34.16;100969.59;5094013;28;20004;-67
2023/11/18 11:36:50;;;;;;;;;;;;;;;-0.56;34.54;100974.56;5078456;28;19934;-66
2023/11/18 11:39:17;;;;;;;;;;;;;;;-0.57;34.42;100971.13;5108569;27;19971;-68
2023/11/18 11:41:47;;;;;;;;;;;;;;;-0.66;34.43;100976.59;5095401;28;19920;-69
2023/11/18 11:44:13;;;;;;;;;;;;;;;-0.82;34.14;100979.09;5076545;28;20430;-71
2023/11/18 11:46:41;;;;;;;;;;;;;;;-0.94;34.43;100982.72;5123542;27;20030;-69
2023/11/18 11:49:20;;;;;;;;;;;;;;;-1.07;34.49;100972.59;5124881;27;19920;-69
2023/11/18 11:51:48;;;;;;;;;;;;;;;-1.11;35.39;100984.34;5095288;28;19924;-69
2023/11/18 11:54:28;;;;;;;;;;;;;;;-1.24;35.55;100975.09;5093132;28;19935;-69
2023/11/18 11:56:59;;;;;;;;;;;;;;;-1.23;35.34;100976.84;5094492;28;19924;-69
2023/11/18 11:59:55;;;;;;;;;;;;;;;-1.26;35.32;100974.13;5070869;28;20354;-68
2023/11/18 12:02:32;;;;;;;;;;;;;;;-1.29;35.44;100976.47;5093239;27;19927;-68
2023/11/18 12:04:58;;;;;;;;;;;;;;;-1.33;35.58;100973.69;5122973;27;19928;-68
2023/11/18 12:07:27;;;;;;;;;;;;;;;-1.45;36.01;100973.84;5125436;27;19973;-67
2023/11/18 12:09:57;;;;;;;;;;;;;;;-1.49;35.43;100971.88;5095339;28;19927;-68
2023/11/18 12:12:27;;;;;;;;;;;;;;;-1.54;36.01;100980.16;5095150;28;19924;-67
2023/11/18 12:17:55;;;;;;;;;;;;;;;-1.56;36.16;100980.88;5090967;28;20152;-67
2023/11/18 12:20:42;;;;;;;;;;;;;;;-1.61;35.91;100983.13;5092617;28;19924;-67
2023/11/18 12:23:14;;;;;;;;;;;;;;;-1.74;36.29;100984.06;5080671;28;20397;-66
2023/11/18 12:25:45;;;;;;;;;;;;;;;-1.79;37.00;100980.38;5105096;27;19920;-66
2023/11/18 12:28:11;;;;;;;;;;;;;;;-1.80;36.35;100985.38;5093433;28;19924;-66
2023/11/18 12:30:51;;;;;;;;;;;;;;;-1.84;36.51;100980.06;5094478;28;20010;-67
2023/11/18 12:33:18;;;;;;;;;;;;;;;-1.85;36.86;100985.97;5082669;28;19989;-66
2023/11/18 12:35:50;;;;;;;;;;;;;;;-1.88;37.23;100982.38;5074535;28;20013;-66
2023/11/18 12:38:28;;;;;;;;;;;;;;;-1.93;37.38;100978.66;5094361;28;20591;-66
2023/11/18 12:41:02;;;;;;;;;;;;;;;-1.98;37.01;100991.13;5061756;28;19919;-66
2023/11/18 12:43:51;;;;;;;;;;;;;;;-2.10;37.13;100991.25;5081561;28;19988;-65
2023/11/18 12:46:39;;;;;;;;;;;;;;;-2.18;37.54;100993.34;5075710;28;19920;-66
2023/11/18 12:49:05;;;;;;;;;;;;;;;-2.31;37.50;100986.59;5094619;28;20878;-67